Time;durP1;ratioP1;P1;durP2;ratioP2;P2;SDS_P1;SDS_P2;PMS_P1;PMS_P2;Temp;Humidity;BMP_temperature;BMP_pressure;BME280_temperature;BME280_humidity;BME280_pressure;Samples;Min_cycle;Max_cycle;Signal;HPM_P1;HPM_P2
2021/08/20 00:02:13;;;;;;;2.00;1.90;;;;;;;19.83;65.77;96743.00;5040793;28;20693;-65
2021/08/20 00:04:39;;;;;;;2.30;1.90;;;;;;;19.83;65.84;96746.44;5036220;28;20225;-65
2021/08/20 00:07:04;;;;;;;2.00;1.77;;;;;;;19.77;66.04;96754.78;5047072;28;20691;-65
2021/08/20 00:09:30;;;;;;;1.90;1.80;;;;;;;19.77;66.46;96744.94;5039463;28;20671;-65
2021/08/20 00:11:55;;;;;;;2.15;1.95;;;;;;;19.72;66.81;96763.63;5046262;28;20191;-65
2021/08/20 00:14:21;;;;;;;1.73;1.63;;;;;;;19.73;66.96;96756.41;5044744;28;20195;-65
2021/08/20 00:16:47;;;;;;;2.30;1.90;;;;;;;19.72;67.07;96749.53;5042511;28;20531;-65
2021/08/20 00:19:13;;;;;;;3.83;2.08;;;;;;;19.74;67.17;96747.34;5046927;28;20227;-65
2021/08/20 00:21:39;;;;;;;2.17;1.90;;;;;;;19.74;67.16;96747.34;5037310;28;20321;-65
2021/08/20 00:24:06;;;;;;;2.22;2.13;;;;;;;19.69;67.60;96744.75;5038746;28;20717;-66
2021/08/20 00:26:31;;;;;;;1.95;1.85;;;;;;;19.67;67.78;96739.72;5050642;28;20192;-65
2021/08/20 00:28:56;;;;;;;2.22;2.03;;;;;;;19.73;67.73;96740.44;5041231;28;20186;-65
2021/08/20 00:31:22;;;;;;;2.25;1.98;;;;;;;19.68;67.98;96738.63;5036273;28;20290;-66
2021/08/20 00:33:48;;;;;;;2.40;2.20;;;;;;;19.61;68.48;96737.44;5037276;28;20291;-66
2021/08/20 00:36:13;;;;;;;2.08;1.98;;;;;;;19.65;68.37;96733.09;5041036;28;20189;-65
2021/08/20 00:38:39;;;;;;;2.55;2.35;;;;;;;19.69;68.14;96729.59;5044622;28;20235;-66
2021/08/20 00:41:08;;;;;;;2.30;2.10;;;;;;;19.67;68.37;96737.06;5043807;28;20304;-66
2021/08/20 00:43:33;;;;;;;2.38;2.00;;;;;;;19.67;68.51;96734.38;5035195;28;20336;-66
2021/08/20 00:46:03;;;;;;;2.20;2.00;;;;;;;19.63;68.58;96728.06;5039408;28;20689;-65
2021/08/20 00:48:28;;;;;;;2.00;1.90;;;;;;;19.66;68.78;96732.84;5039070;28;20223;-65
2021/08/20 00:51:17;;;;;;;2.38;2.17;;;;;;;19.63;69.37;96727.28;5045014;28;20266;-65
2021/08/20 00:53:44;;;;;;;2.47;2.28;;;;;;;19.62;69.06;96729.13;5044303;28;20653;-65
2021/08/20 00:56:10;;;;;;;2.33;2.13;;;;;;;19.61;68.96;96730.25;5040361;28;20232;-66
2021/08/20 00:58:36;;;;;;;2.47;2.20;;;;;;;19.55;69.46;96727.94;5042160;28;20186;-65
2021/08/20 01:01:05;;;;;;;2.00;1.90;;;;;;;19.61;69.45;96727.59;5048224;28;20225;-65
2021/08/20 01:03:31;;;;;;;2.08;1.92;;;;;;;19.62;69.25;96718.50;5031047;28;20193;-65
2021/08/20 01:05:58;;;;;;;5.15;2.10;;;;;;;19.69;69.15;96723.47;5035651;28;20214;-66
2021/08/20 01:08:25;;;;;;;2.15;2.05;;;;;;;19.61;69.57;96724.13;5037755;28;20178;-65
2021/08/20 01:10:51;;;;;;;2.53;2.33;;;;;;;19.65;69.56;96719.81;5045274;28;20186;-65
2021/08/20 01:13:17;;;;;;;3.95;2.40;;;;;;;19.69;69.45;96718.94;5031910;28;20273;-65
2021/08/20 01:15:43;;;;;;;2.45;2.25;;;;;;;19.71;69.32;96708.84;5039493;28;20252;-65
2021/08/20 01:18:09;;;;;;;2.67;2.35;;;;;;;19.66;69.63;96716.09;5038296;28;20218;-65
2021/08/20 01:20:34;;;;;;;2.67;2.45;;;;;;;19.46;70.44;96711.78;5043313;28;20182;-65
2021/08/20 01:22:59;;;;;;;3.10;2.80;;;;;;;19.42;70.95;96716.06;5039868;28;20665;-65
2021/08/20 01:25:25;;;;;;;2.60;2.40;;;;;;;19.53;70.66;96717.56;5040961;28;20198;-65
2021/08/20 01:28:04;;;;;;;2.90;2.50;;;;;;;19.45;71.02;96729.59;5039767;28;20217;-63
2021/08/20 01:30:30;;;;;;;2.17;1.98;;;;;;;19.42;69.74;96730.16;5041365;28;20170;-64
2021/08/20 01:32:55;;;;;;;2.40;2.20;;;;;;;19.45;69.18;96723.50;5046212;28;20324;-64
2021/08/20 01:35:23;;;;;;;2.10;1.90;;;;;;;19.39;69.14;96719.31;5034705;28;20183;-64
2021/08/20 01:37:48;;;;;;;2.63;2.30;;;;;;;19.30;69.31;96729.75;5041720;28;20620;-63
2021/08/20 01:40:13;;;;;;;5.05;2.33;;;;;;;19.28;69.37;96723.94;5034555;28;20222;-63
2021/08/20 01:42:39;;;;;;;2.83;2.50;;;;;;;19.36;69.30;96711.91;5042625;28;20658;-63
2021/08/20 01:45:05;;;;;;;3.70;2.83;;;;;;;19.39;69.10;96720.06;5048859;28;20209;-64
2021/08/20 01:47:30;;;;;;;3.40;2.50;;;;;;;19.34;69.70;96724.66;5043068;28;20189;-64
2021/08/20 01:49:55;;;;;;;2.63;2.20;;;;;;;19.25;70.37;96719.19;5037856;28;20221;-65
2021/08/20 01:52:21;;;;;;;3.23;2.27;;;;;;;19.33;69.74;96712.47;5045098;28;20187;-64
2021/08/20 01:54:46;;;;;;;2.70;1.97;;;;;;;19.38;69.89;96715.06;5037082;28;20201;-65
2021/08/20 01:57:11;;;;;;;3.70;1.85;;;;;;;19.33;70.15;96723.91;5042339;28;20186;-65
2021/08/20 01:59:38;;;;;;;2.58;2.30;;;;;;;19.29;70.39;96712.22;5037547;28;20214;-64
2021/08/20 02:02:04;;;;;;;3.03;2.47;;;;;;;19.38;69.84;96715.88;5033078;28;20182;-63
2021/08/20 02:04:29;;;;;;;3.97;2.30;;;;;;;19.34;70.34;96714.03;5042951;28;20229;-63
2021/08/20 02:06:54;;;;;;;3.10;2.53;;;;;;;19.34;70.29;96716.69;5034382;28;20182;-64
2021/08/20 02:09:20;;;;;;;3.00;2.38;;;;;;;19.41;70.84;96720.59;5034695;28;20187;-64
2021/08/20 02:11:45;;;;;;;2.90;2.30;;;;;;;19.34;70.67;96719.34;5046582;28;20225;-64
2021/08/20 02:14:10;;;;;;;3.13;2.80;;;;;;;19.36;70.67;96722.53;5034196;28;20277;-64
2021/08/20 02:16:36;;;;;;;4.80;3.28;;;;;;;19.38;70.51;96721.19;5040344;28;20198;-64
2021/08/20 02:19:01;;;;;;;3.47;2.78;;;;;;;19.32;70.66;96722.31;5041887;28;20179;-64
2021/08/20 02:21:27;;;;;;;5.07;3.45;;;;;;;19.29;70.93;96725.53;5043514;28;20601;-64
2021/08/20 02:23:52;;;;;;;3.67;2.55;;;;;;;19.38;70.63;96723.03;5048496;28;20182;-64
2021/08/20 02:26:17;;;;;;;4.00;2.93;;;;;;;19.33;70.65;96713.28;5040755;28;20269;-64
2021/08/20 02:28:43;;;;;;;2.80;2.33;;;;;;;19.38;70.72;96728.34;5047143;28;20570;-64
2021/08/20 02:31:08;;;;;;;3.05;2.75;;;;;;;19.39;70.72;96719.31;5034845;28;20207;-64
2021/08/20 02:33:34;;;;;;;7.90;2.30;;;;;;;19.38;70.88;96721.19;5043655;28;20213;-64
2021/08/20 02:36:02;;;;;;;2.70;2.50;;;;;;;19.38;70.74;96720.38;5045226;28;20178;-64
2021/08/20 02:38:28;;;;;;;3.25;2.50;;;;;;;19.37;70.76;96716.13;5036744;28;20549;-64
2021/08/20 02:40:53;;;;;;;3.70;2.30;;;;;;;19.40;70.49;96726.97;5047863;28;20227;-64
2021/08/20 02:43:18;;;;;;;2.75;2.22;;;;;;;19.39;70.67;96725.41;5043360;28;20641;-64
2021/08/20 02:45:44;;;;;;;3.38;2.55;;;;;;;19.44;70.27;96722.72;5024480;28;20206;-64
2021/08/20 02:48:09;;;;;;;3.20;2.30;;;;;;;19.45;69.96;96718.19;5045492;28;20197;-64
2021/08/20 02:50:35;;;;;;;2.50;2.30;;;;;;;19.47;69.51;96724.03;5042724;28;20174;-64
2021/08/20 02:53:00;;;;;;;2.22;2.03;;;;;;;19.51;69.18;96725.81;5048654;28;20588;-64
2021/08/20 02:55:25;;;;;;;5.27;1.97;;;;;;;19.44;69.74;96730.69;5034869;28;20221;-64
2021/08/20 02:57:51;;;;;;;2.20;2.00;;;;;;;19.40;69.54;96729.63;5044227;28;20191;-64
2021/08/20 03:00:16;;;;;;;2.05;1.92;;;;;;;19.47;69.17;96730.13;5037105;28;20183;-64
2021/08/20 03:02:42;;;;;;;2.03;1.92;;;;;;;19.33;69.57;96723.91;5036083;28;20214;-64
2021/08/20 03:05:07;;;;;;;2.30;2.10;;;;;;;19.36;69.27;96723.31;5048339;28;20205;-64
2021/08/20 03:07:33;;;;;;;1.92;1.83;;;;;;;19.39;69.14;96733.38;5040247;28;21090;-64
2021/08/20 03:09:58;;;;;;;1.90;1.80;;;;;;;19.33;69.26;96723.09;5044281;28;20181;-64
2021/08/20 03:12:24;;;;;;;3.28;2.10;;;;;;;19.31;69.30;96726.03;5046039;28;20178;-64
2021/08/20 03:14:51;;;;;;;2.30;1.67;;;;;;;19.44;68.69;96727.22;5036595;28;20187;-64
2021/08/20 03:17:16;;;;;;;1.70;1.60;;;;;;;19.35;69.07;96720.94;5020580;28;20217;-65
2021/08/20 03:19:42;;;;;;;1.95;1.80;;;;;;;19.38;69.14;96726.50;5050838;28;20695;-64
2021/08/20 03:22:08;;;;;;;2.28;2.10;;;;;;;19.36;69.02;96725.97;5034700;28;20667;-64
2021/08/20 03:24:33;;;;;;;3.20;2.17;;;;;;;19.40;69.11;96729.63;5039700;28;20203;-64
2021/08/20 03:26:58;;;;;;;2.50;2.00;;;;;;;19.39;68.86;96725.41;5033692;28;20178;-64
2021/08/20 03:29:24;;;;;;;2.63;1.80;;;;;;;19.45;68.75;96720.84;5032370;28;20254;-64
2021/08/20 03:31:49;;;;;;;2.35;1.65;;;;;;;19.44;68.48;96729.88;5038858;28;20236;-65
2021/08/20 03:34:14;;;;;;;3.03;1.95;;;;;;;19.44;68.40;96724.56;5052963;28;20190;-65
2021/08/20 03:36:40;;;;;;;1.67;1.60;;;;;;;19.36;68.75;96725.19;5051000;28;20202;-65
2021/08/20 03:39:05;;;;;;;1.75;1.65;;;;;;;19.45;68.27;96723.50;5033099;28;20209;-64
2021/08/20 03:41:31;;;;;;;1.75;1.65;;;;;;;19.38;68.54;96721.19;5048221;28;20221;-64
2021/08/20 03:43:56;;;;;;;2.45;1.90;;;;;;;19.37;68.59;96727.56;5036937;28;20248;-64
2021/08/20 03:46:21;;;;;;;1.70;1.60;;;;;;;19.35;68.75;96720.94;5046868;28;20245;-64
2021/08/20 03:48:47;;;;;;;2.28;1.80;;;;;;;19.37;68.44;96726.78;5041554;28;20194;-65
2021/08/20 03:51:13;;;;;;;1.88;1.77;;;;;;;19.37;68.58;96734.75;5046857;28;20208;-64
2021/08/20 03:53:38;;;;;;;2.28;1.60;;;;;;;19.40;68.40;96728.84;5034266;28;20194;-64
2021/08/20 03:56:04;;;;;;;2.00;1.90;;;;;;;19.42;68.39;96735.47;5038710;28;20204;-64
2021/08/20 03:58:29;;;;;;;2.10;1.88;;;;;;;19.33;68.67;96739.84;5038824;28;20187;-64
2021/08/20 04:00:55;;;;;;;1.90;1.80;;;;;;;19.41;68.35;96739.22;5022643;28;20189;-64
2021/08/20 04:03:22;;;;;;;2.20;2.00;;;;;;;19.44;67.99;96736.00;5048138;28;20189;-65
2021/08/20 04:05:48;;;;;;;2.15;1.67;;;;;;;19.45;67.68;96734.94;5034690;28;20233;-65
2021/08/20 04:08:14;;;;;;;1.75;1.65;;;;;;;19.42;67.66;96734.69;5038780;28;20261;-65
2021/08/20 04:10:42;;;;;;;1.60;1.50;;;;;;;19.46;67.59;96738.38;5043043;28;20190;-65
2021/08/20 04:13:08;;;;;;;2.00;1.85;;;;;;;19.41;67.61;96739.22;5036535;28;20179;-65
2021/08/20 04:15:37;;;;;;;3.80;2.13;;;;;;;19.38;67.88;96737.13;5047774;28;20875;-65
2021/08/20 04:18:02;;;;;;;2.10;2.00;;;;;;;19.36;67.62;96727.84;5041893;28;20715;-65
2021/08/20 04:20:28;;;;;;;1.95;1.85;;;;;;;19.40;67.85;96734.16;5048193;28;20185;-65
2021/08/20 04:22:55;;;;;;;1.92;1.83;;;;;;;19.39;67.94;96735.25;5041650;28;20570;-65
2021/08/20 04:25:22;;;;;;;1.67;1.58;;;;;;;19.37;67.70;96737.41;5044795;28;20206;-64
2021/08/20 04:27:47;;;;;;;2.33;1.75;;;;;;;19.37;67.61;96734.75;5034371;28;20186;-64
2021/08/20 04:30:13;;;;;;;1.60;1.50;;;;;;;19.41;67.39;96739.22;5036389;28;20211;-64
2021/08/20 04:32:38;;;;;;;1.50;1.40;;;;;;;19.40;67.61;96740.28;5039744;28;20692;-64
2021/08/20 04:35:04;;;;;;;1.77;1.60;;;;;;;19.39;67.81;96746.66;5049144;28;20189;-64
2021/08/20 04:37:30;;;;;;;2.20;1.80;;;;;;;19.39;67.99;96745.91;5045706;28;20202;-64
2021/08/20 04:39:55;;;;;;;2.40;2.20;;;;;;;19.34;68.04;96743.28;5037750;28;20193;-63
2021/08/20 04:42:20;;;;;;;2.00;1.90;;;;;;;19.36;68.07;96747.25;5048266;28;20251;-64
2021/08/20 04:44:46;;;;;;;2.10;1.90;;;;;;;19.41;67.70;96751.69;5042799;28;20226;-64
2021/08/20 04:47:11;;;;;;;1.90;1.80;;;;;;;19.42;67.50;96761.28;5036837;28;20678;-64
2021/08/20 04:49:36;;;;;;;2.17;1.88;;;;;;;19.44;67.22;96761.78;5033614;28;20328;-64
2021/08/20 04:52:02;;;;;;;2.03;1.80;;;;;;;19.41;67.67;96755.16;5035683;28;20305;-63
2021/08/20 04:54:28;;;;;;;1.83;1.67;;;;;;;19.45;67.80;96758.84;5036960;28;20658;-63
2021/08/20 04:56:54;;;;;;;2.40;1.75;;;;;;;19.54;67.54;96763.56;5043629;28;20185;-63
2021/08/20 04:59:19;;;;;;;1.80;1.70;;;;;;;19.50;68.06;96760.69;5045734;28;20653;-64
2021/08/20 05:01:45;;;;;;;1.90;1.80;;;;;;;19.50;68.59;96763.34;5043909;28;20182;-63
2021/08/20 05:04:11;;;;;;;1.90;1.80;;;;;;;19.46;68.79;96765.75;5033549;28;20578;-63
2021/08/20 05:06:37;;;;;;;1.88;1.77;;;;;;;19.60;68.11;96762.44;5040039;28;20194;-64
2021/08/20 05:09:03;;;;;;;2.85;2.00;;;;;;;19.62;68.07;96765.56;5042822;28;20275;-65
2021/08/20 05:11:29;;;;;;;3.47;2.20;;;;;;;19.61;68.02;96762.16;5033538;28;20612;-66
2021/08/20 05:13:55;;;;;;;2.13;1.73;;;;;;;19.60;67.99;96770.41;5037890;28;20186;-65
2021/08/20 05:16:21;;;;;;;2.97;2.00;;;;;;;19.68;67.93;96772.41;5034996;28;20182;-64
2021/08/20 05:18:46;;;;;;;1.90;1.80;;;;;;;19.71;67.78;96772.66;5032617;28;20197;-64
2021/08/20 05:21:11;;;;;;;2.38;1.98;;;;;;;19.83;67.49;96769.59;5036040;28;20205;-64
2021/08/20 05:23:37;;;;;;;2.20;2.00;;;;;;;19.79;68.49;96773.88;5041283;28;20769;-64
2021/08/20 05:26:02;;;;;;;2.53;2.03;;;;;;;19.81;68.94;96780.50;5039598;28;20252;-64
2021/08/20 05:28:27;;;;;;;3.70;2.30;;;;;;;19.74;69.52;96787.25;5029888;28;20183;-65
2021/08/20 05:30:53;;;;;;;2.92;2.20;;;;;;;19.82;69.24;96786.63;5032185;28;20210;-64
2021/08/20 05:33:18;;;;;;;2.17;2.00;;;;;;;19.90;69.04;96791.28;5035582;28;20583;-64
2021/08/20 05:35:46;;;;;;;2.22;1.83;;;;;;;19.91;69.33;96791.00;5035065;28;20273;-65
2021/08/20 05:38:13;;;;;;;4.20;2.15;;;;;;;20.00;68.94;96793.84;5034385;28;20178;-65
2021/08/20 05:40:38;;;;;;;2.22;2.00;;;;;;;20.03;69.06;96797.78;5044774;28;20367;-65
2021/08/20 05:43:04;;;;;;;2.40;2.10;;;;;;;20.06;68.91;96789.25;5045737;28;20713;-65
2021/08/20 05:45:29;;;;;;;1.95;1.85;;;;;;;20.16;68.53;96791.78;5043051;28;20655;-65
2021/08/20 05:47:54;;;;;;;2.00;1.90;;;;;;;20.21;68.19;96794.34;5046837;28;20183;-66
2021/08/20 05:50:20;;;;;;;2.10;1.90;;;;;;;20.25;68.09;96793.50;5048436;28;20281;-65
2021/08/20 05:52:45;;;;;;;2.55;2.35;;;;;;;20.36;67.97;96801.34;5047949;28;20530;-65
2021/08/20 05:55:12;;;;;;;2.63;2.10;;;;;;;20.47;67.25;96800.91;5042446;28;20655;-65
2021/08/20 05:57:37;;;;;;;2.47;2.13;;;;;;;20.59;66.94;96805.81;5033261;28;20186;-65
2021/08/20 06:00:07;;;;;;;1.90;1.80;;;;;;;20.69;66.24;96802.97;5039890;28;20182;-65
2021/08/20 06:02:32;;;;;;;2.45;2.00;;;;;;;20.79;65.96;96818.03;5038372;28;20194;-65
2021/08/20 06:04:58;;;;;;;2.15;1.85;;;;;;;20.91;65.56;96819.16;5047065;28;20205;-65
2021/08/20 06:07:23;;;;;;;2.05;1.95;;;;;;;21.01;65.37;96823.53;5049929;28;20186;-66
2021/08/20 06:09:49;;;;;;;2.10;1.90;;;;;;;21.04;65.36;96823.75;5044387;28;20273;-66
2021/08/20 06:12:14;;;;;;;5.00;2.80;;;;;;;21.11;64.84;96823.38;5042082;28;20198;-65
2021/08/20 06:14:39;;;;;;;2.28;2.08;;;;;;;21.13;65.00;96823.84;5039052;28;20640;-66
2021/08/20 06:17:05;;;;;;;2.25;2.08;;;;;;;21.28;64.75;96822.84;5043269;28;20186;-66
2021/08/20 06:19:31;;;;;;;1.98;1.88;;;;;;;21.34;64.63;96824.34;5037173;28;20182;-65
2021/08/20 06:21:56;;;;;;;3.80;1.90;;;;;;;21.38;64.40;96817.31;5035420;28;20262;-66
2021/08/20 06:24:21;;;;;;;3.70;2.17;;;;;;;21.51;63.95;96821.88;5043396;28;20202;-67
2021/08/20 06:26:47;;;;;;;2.13;1.92;;;;;;;21.63;63.87;96818.72;5040207;28;20714;-65
2021/08/20 06:29:20;;;;;;;2.80;2.05;;;;;;;21.76;62.50;96818.72;5038620;28;20274;-65
2021/08/20 06:31:46;;;;;;;2.08;1.88;;;;;;;21.86;62.07;96821.19;5051998;28;20181;-64
2021/08/20 06:34:11;;;;;;;2.63;2.10;;;;;;;22.05;61.89;96828.31;5036830;28;20210;-64
2021/08/20 06:36:37;;;;;;;1.80;1.70;;;;;;;22.10;61.25;96829.00;5046797;28;20219;-68
2021/08/20 06:39:03;;;;;;;2.30;1.98;;;;;;;21.89;61.75;96827.81;5048044;28;20198;-65
2021/08/20 06:41:28;;;;;;;2.47;1.92;;;;;;;21.88;61.47;96827.03;5037313;28;20226;-65
2021/08/20 06:43:53;;;;;;;3.03;2.30;;;;;;;21.48;63.22;96825.91;5047123;28;20181;-64
2021/08/20 06:46:19;;;;;;;3.33;2.97;;;;;;;20.89;65.03;96839.19;5045603;28;20210;-68
2021/08/20 06:48:44;;;;;;;14.77;11.18;;;;;;;21.19;64.83;96835.25;5039783;28;20273;-66
2021/08/20 06:51:14;;;;;;;6.82;5.00;;;;;;;21.25;64.47;96829.53;5045712;28;20568;-66
2021/08/20 06:53:39;;;;;;;5.32;3.90;;;;;;;21.46;63.90;96821.94;5036458;28;20238;-66
2021/08/20 06:56:05;;;;;;;3.25;2.95;;;;;;;21.22;64.59;96824.81;5047613;28;20554;-66
2021/08/20 06:58:31;;;;;;;2.47;2.28;;;;;;;21.07;65.04;96827.69;5042440;28;20187;-66
2021/08/20 07:00:57;;;;;;;3.42;2.78;;;;;;;21.27;65.16;96821.25;5048986;28;20252;-66
2021/08/20 07:03:22;;;;;;;4.07;2.28;;;;;;;21.20;65.07;96826.97;5047046;28;20247;-66
2021/08/20 07:05:47;;;;;;;5.28;2.83;;;;;;;21.07;65.97;96827.69;5042141;28;20249;-67
2021/08/20 07:08:13;;;;;;;3.08;2.88;;;;;;;20.95;66.33;96822.03;5045968;28;20193;-66
2021/08/20 07:10:38;;;;;;;4.72;2.75;;;;;;;21.17;66.01;96826.75;5049998;28;20193;-68
2021/08/20 07:13:04;;;;;;;3.10;2.40;;;;;;;21.56;64.82;96830.59;5047815;28;20643;-65
2021/08/20 07:15:29;;;;;;;2.70;2.40;;;;;;;21.89;63.55;96827.81;5033609;28;20214;-66
2021/08/20 07:17:55;;;;;;;2.55;2.35;;;;;;;21.71;64.15;96829.50;5034876;28;20611;-68
2021/08/20 07:20:20;;;;;;;3.83;2.90;;;;;;;21.36;65.21;96824.81;5039314;28;20183;-70
2021/08/20 07:22:45;;;;;;;2.50;2.30;;;;;;;21.65;64.66;96824.53;5047522;28;20648;-68
2021/08/20 07:25:11;;;;;;;2.97;2.72;;;;;;;22.11;63.12;96825.25;5049052;28;20659;-68
2021/08/20 07:27:37;;;;;;;3.80;2.60;;;;;;;22.50;61.96;96818.53;5035562;28;20191;-68
2021/08/20 07:30:03;;;;;;;3.05;2.83;;;;;;;22.14;62.67;96829.19;5046014;28;20191;-68
2021/08/20 07:32:29;;;;;;;4.43;2.75;;;;;;;22.24;62.41;96832.44;5048308;28;20605;-67
2021/08/20 07:34:54;;;;;;;4.90;2.85;;;;;;;22.82;61.42;96825.56;5042813;28;20277;-68
2021/08/20 07:37:19;;;;;;;3.55;2.72;;;;;;;23.07;60.37;96828.41;5035066;28;20277;-68
2021/08/20 07:39:45;;;;;;;3.78;2.63;;;;;;;23.62;58.65;96828.09;5037898;28;20182;-67
2021/08/20 07:42:10;;;;;;;3.58;2.55;;;;;;;24.11;57.67;96828.88;5043458;28;20658;-68
2021/08/20 07:44:35;;;;;;;4.28;2.90;;;;;;;24.26;56.47;96836.50;5042154;28;20202;-68
2021/08/20 07:47:01;;;;;;;4.10;3.55;;;;;;;23.78;57.40;96829.25;5049322;28;20662;-65
2021/08/20 07:49:29;;;;;;;3.47;2.97;;;;;;;23.24;58.83;96821.59;5041390;28;20609;-65
2021/08/20 07:51:55;;;;;;;4.10;3.70;;;;;;;22.45;60.85;96840.03;5038847;28;20188;-68
2021/08/20 07:54:21;;;;;;;3.38;3.08;;;;;;;22.61;60.44;96838.59;5044132;28;20187;-68
2021/08/20 07:56:46;;;;;;;4.72;3.70;;;;;;;22.96;59.49;96837.75;5042665;28;20195;-67
2021/08/20 07:59:12;;;;;;;4.05;3.45;;;;;;;23.32;58.84;96831.53;5045015;28;20197;-67
2021/08/20 08:01:37;;;;;;;3.85;3.35;;;;;;;23.26;58.84;96828.19;5045524;28;20179;-67
2021/08/20 08:04:02;;;;;;;4.47;3.60;;;;;;;23.04;59.26;96829.03;5046972;28;20178;-68
2021/08/20 08:06:28;;;;;;;3.95;3.45;;;;;;;22.87;60.36;96831.56;5046928;28;20213;-68
2021/08/20 08:08:53;;;;;;;4.35;3.47;;;;;;;22.83;60.20;96841.31;5041069;28;20648;-67
2021/08/20 08:11:19;;;;;;;4.85;4.15;;;;;;;22.68;59.85;96834.38;5039302;28;20194;-68
2021/08/20 08:13:45;;;;;;;4.93;3.95;;;;;;;23.17;59.10;96840.75;5040605;28;20182;-68
2021/08/20 08:16:11;;;;;;;5.57;3.10;;;;;;;23.31;58.99;96837.97;5037720;28;20233;-68
2021/08/20 08:18:36;;;;;;;3.05;2.85;;;;;;;23.90;57.38;96837.50;5040887;28;20632;-68
2021/08/20 08:21:02;;;;;;;4.07;3.10;;;;;;;24.45;55.53;96842.34;5038399;28;20186;-66
2021/08/20 08:23:27;;;;;;;3.78;3.20;;;;;;;25.05;54.03;96838.91;5040990;28;20269;-65
2021/08/20 08:25:53;;;;;;;4.97;3.65;;;;;;;24.35;55.30;96842.66;5038250;28;20227;-67
2021/08/20 08:28:22;;;;;;;5.25;3.70;;;;;;;24.39;55.59;96848.97;5038033;28;20187;-67
2021/08/20 08:30:49;;;;;;;5.80;3.83;;;;;;;24.65;54.51;96846.28;5044388;28;20185;-66
2021/08/20 08:33:15;;;;;;;4.30;3.90;;;;;;;24.86;54.40;96849.91;5046020;28;20634;-66
2021/08/20 08:35:41;;;;;;;4.00;3.65;;;;;;;25.21;53.61;96850.69;5037973;28;20661;-66
2021/08/20 08:38:12;;;;;;;3.65;3.35;;;;;;;24.92;53.43;96856.72;5043156;28;20190;-66
2021/08/20 08:40:41;;;;;;;5.90;3.30;;;;;;;24.77;53.06;96857.97;5034673;28;20233;-66
2021/08/20 08:43:08;;;;;;;3.72;2.67;;;;;;;24.77;52.44;96865.22;5040945;28;20239;-65
2021/08/20 08:45:35;;;;;;;3.05;2.50;;;;;;;25.00;50.36;96865.88;5037938;28;20229;-66
2021/08/20 08:48:02;;;;;;;2.70;2.38;;;;;;;25.01;50.42;96862.91;5041884;28;20211;-66
2021/08/20 08:50:28;;;;;;;2.92;2.63;;;;;;;23.87;53.99;96856.84;5045074;28;20186;-66
2021/08/20 08:52:53;;;;;;;2.67;2.47;;;;;;;23.84;54.61;96849.44;5032576;28;20186;-65
2021/08/20 08:55:19;;;;;;;4.03;2.53;;;;;;;23.65;55.53;96856.13;5039132;28;20277;-66
2021/08/20 08:57:44;;;;;;;2.90;2.70;;;;;;;23.71;55.54;96854.88;5046343;28;20186;-65
2021/08/20 09:00:10;;;;;;;3.13;2.78;;;;;;;23.61;55.94;96846.03;5034289;28;20179;-65
2021/08/20 09:02:36;;;;;;;3.38;2.63;;;;;;;23.50;56.28;96850.09;5036930;28;20227;-66
2021/08/20 09:05:10;;;;;;;2.60;2.40;;;;;;;24.07;55.62;96846.69;5042184;28;20199;-65
2021/08/20 09:07:36;;;;;;;2.55;2.35;;;;;;;24.42;52.76;96857.16;5044529;28;20174;-64
2021/08/20 09:10:19;;;;;;;2.75;2.30;;;;;;;25.14;51.38;96858.44;5048395;28;20631;-66
2021/08/20 09:12:59;;;;;;;2.92;2.58;;;;;;;24.67;51.07;96860.97;5041880;28;20194;-65
2021/08/20 09:15:31;;;;;;;2.70;2.50;;;;;;;25.17;50.46;96853.25;5036161;28;20535;-66
2021/08/20 09:18:01;;;;;;;3.15;2.78;;;;;;;25.88;48.42;96847.34;5047941;28;20178;-66
2021/08/20 09:20:29;;;;;;;2.88;2.63;;;;;;;25.00;49.81;96865.88;5036406;28;20196;-67
2021/08/20 09:22:58;;;;;;;3.88;2.47;;;;;;;24.31;51.58;96858.56;5040181;28;20213;-65
2021/08/20 09:25:34;;;;;;;2.58;2.20;;;;;;;24.16;52.34;96856.31;5034645;28;20207;-65
2021/08/20 09:28:09;;;;;;;2.78;2.50;;;;;;;23.50;53.67;96857.31;5046079;28;20251;-66
2021/08/20 09:30:35;;;;;;;3.08;2.63;;;;;;;23.27;56.18;96859.22;5038592;28;20264;-64
2021/08/20 09:33:00;;;;;;;3.58;2.88;;;;;;;22.89;57.48;96858.81;5038336;28;20289;-66
2021/08/20 09:35:34;;;;;;;4.18;3.65;;;;;;;22.58;59.34;96860.53;5042507;28;20194;-66
2021/08/20 09:38:26;;;;;;;4.32;3.92;;;;;;;22.72;59.11;96862.13;5045611;28;20263;-65
2021/08/20 09:40:57;;;;;;;5.53;4.47;;;;;;;22.79;58.71;96862.47;5039031;28;20705;-66
2021/08/20 09:43:28;;;;;;;7.22;4.22;;;;;;;22.85;58.94;96857.81;5042621;28;20251;-67
2021/08/20 09:46:04;;;;;;;4.53;3.70;;;;;;;22.98;58.46;96867.66;5044222;28;20198;-67
2021/08/20 09:48:39;;;;;;;5.07;4.18;;;;;;;22.66;59.70;96857.16;5043152;28;20204;-66
2021/08/20 09:51:04;;;;;;;4.40;4.00;;;;;;;22.59;60.57;96854.13;5037996;28;20725;-66
2021/08/20 09:53:29;;;;;;;4.20;3.72;;;;;;;22.65;60.40;96858.25;5043514;28;20182;-66
2021/08/20 09:55:55;;;;;;;5.30;3.92;;;;;;;23.11;58.62;96856.13;5047333;28;20183;-66
2021/08/20 09:58:21;;;;;;;3.92;3.38;;;;;;;23.52;56.59;96855.91;5045978;28;20639;-67
2021/08/20 10:00:48;;;;;;;5.53;3.08;;;;;;;23.61;55.91;96850.59;5046500;28;20209;-65
2021/08/20 10:03:17;;;;;;;5.07;3.75;;;;;;;22.92;58.00;96860.06;5045187;28;20266;-67
2021/08/20 10:05:44;;;;;;;6.32;4.75;;;;;;;22.27;60.22;96858.56;5044916;28;20194;-67
2021/08/20 10:08:12;;;;;;;4.95;4.50;;;;;;;22.16;60.58;96851.84;5042390;28;20194;-66
2021/08/20 10:10:43;;;;;;;7.07;5.00;;;;;;;22.14;60.15;96854.00;5045717;28;20245;-64
2021/08/20 10:13:09;;;;;;;5.97;4.57;;;;;;;22.58;59.40;96853.31;5043471;28;20171;-65
2021/08/20 10:15:34;;;;;;;6.63;4.07;;;;;;;22.61;58.85;96847.41;5042977;28;20219;-65
2021/08/20 10:18:03;;;;;;;4.25;3.85;;;;;;;22.74;57.86;96841.22;5042196;28;20186;-64
2021/08/20 10:20:31;;;;;;;3.80;3.50;;;;;;;23.12;56.98;96841.66;5038752;28;20178;-65
2021/08/20 10:22:57;;;;;;;4.78;3.60;;;;;;;23.24;56.47;96843.75;5050457;28;20182;-64
2021/08/20 10:25:23;;;;;;;4.15;3.20;;;;;;;24.11;53.37;96843.06;5043489;28;20604;-67
2021/08/20 10:27:48;;;;;;;3.47;3.17;;;;;;;24.51;52.48;96851.03;5039671;28;20221;-63
2021/08/20 10:30:14;;;;;;;4.55;3.22;;;;;;;24.83;51.93;96845.19;5039481;28;20186;-63
2021/08/20 10:33:01;;;;;;;3.55;3.00;;;;;;;25.76;49.44;96842.66;5040671;28;20205;-63
2021/08/20 10:35:47;;;;;;;3.53;2.85;;;;;;;26.14;48.46;96836.50;5045054;28;20186;-63
2021/08/20 10:38:34;;;;;;;4.70;2.85;;;;;;;26.58;46.82;96838.59;5037269;28;20194;-62
2021/08/20 10:41:23;;;;;;;3.17;2.90;;;;;;;26.67;46.45;96849.25;5046170;28;20230;-63
2021/08/20 10:43:48;;;;;;;3.50;3.13;;;;;;;26.03;48.42;96850.28;5034061;28;20174;-63
2021/08/20 10:46:32;;;;;;;3.58;3.28;;;;;;;25.04;50.72;96848.03;5032704;28;20225;-63
2021/08/20 10:49:14;;;;;;;2.83;2.60;;;;;;;24.63;52.38;96845.84;5039116;28;20568;-63
2021/08/20 10:51:52;;;;;;;3.97;2.70;;;;;;;24.68;52.59;96846.47;5034230;28;20265;-63
2021/08/20 10:54:36;;;;;;;3.95;3.50;;;;;;;24.35;52.73;96848.03;5043440;28;20217;-65
2021/08/20 10:57:03;;;;;;;3.85;3.20;;;;;;;24.85;51.39;96851.03;5043870;28;20167;-63
2021/08/20 10:59:38;;;;;;;6.35;3.53;;;;;;;24.07;52.85;96846.69;5045696;28;20193;-63
2021/08/20 11:02:19;;;;;;;3.92;3.47;;;;;;;23.56;55.21;96845.38;5039133;28;20181;-65
2021/08/20 11:05:00;;;;;;;3.42;3.13;;;;;;;23.61;55.73;96848.72;5035950;28;20214;-63
2021/08/20 11:07:34;;;;;;;3.92;3.53;;;;;;;23.49;54.42;96842.34;5040565;28;20190;-66
2021/08/20 11:10:01;;;;;;;3.40;3.10;;;;;;;23.70;53.99;96840.72;5034079;28;20201;-63
2021/08/20 11:12:35;;;;;;;3.50;3.20;;;;;;;23.53;54.53;96832.59;5050518;28;20217;-66
2021/08/20 11:15:30;;;;;;;4.57;3.35;;;;;;;22.93;55.91;96841.06;5044834;28;20192;-63
2021/08/20 11:17:57;;;;;;;3.38;2.90;;;;;;;23.50;53.45;96838.59;5032522;28;20210;-63
2021/08/20 11:20:35;;;;;;;6.63;2.90;;;;;;;23.42;51.61;96837.41;5047572;28;20273;-62
2021/08/20 11:23:04;;;;;;;2.63;2.40;;;;;;;22.94;52.85;96831.94;5041795;28;20220;-62
2021/08/20 11:25:48;;;;;;;3.03;2.45;;;;;;;22.88;53.38;96841.19;5040852;28;20218;-66
2021/08/20 11:28:34;;;;;;;2.58;2.38;;;;;;;23.59;51.79;96840.19;5035858;28;20185;-63
2021/08/20 11:31:07;;;;;;;2.55;2.35;;;;;;;23.65;50.66;96840.06;5044255;28;20171;-64
2021/08/20 11:33:47;;;;;;;3.15;2.55;;;;;;;23.76;51.17;96833.34;5050070;28;20266;-64
2021/08/20 11:36:16;;;;;;;2.70;2.50;;;;;;;23.98;50.61;96836.72;5044337;28;20186;-63